createdAt,value
2022-10-30T00:00:15.613Z,50.00
2022-10-30T00:02:43.269Z,50.10
2022-10-30T00:05:10.919Z,49.70
2022-10-30T00:07:38.563Z,49.50
2022-10-30T00:10:07.078Z,49.40
2022-10-30T00:12:36.070Z,49.50
2022-10-30T00:15:04.488Z,49.50
2022-10-30T00:17:32.130Z,49.50
2022-10-30T00:19:59.803Z,49.20
2022-10-30T00:22:27.436Z,48.90
2022-10-30T00:24:55.119Z,48.90
2022-10-30T00:27:22.827Z,48.60
2022-10-30T00:29:51.842Z,48.80
2022-10-30T00:32:19.503Z,48.40
2022-10-30T00:34:47.149Z,48.40
2022-10-30T00:37:14.808Z,48.50
2022-10-30T00:39:42.488Z,48.10
2022-10-30T00:42:12.075Z,47.90
2022-10-30T00:44:44.169Z,47.70
2022-10-30T00:47:16.375Z,47.90
2022-10-30T00:49:49.674Z,47.90
2022-10-30T00:52:17.381Z,47.40
2022-10-30T00:54:45.102Z,47.50
2022-10-30T00:57:14.350Z,47.20
2022-10-30T00:59:42.360Z,47.30
2022-10-30T01:02:10.089Z,47.10
2022-10-30T01:04:39.197Z,46.80
2022-10-30T01:07:08.255Z,46.70
2022-10-30T01:09:36.099Z,46.60
2022-10-30T01:12:03.874Z,46.50
2022-10-30T01:14:31.624Z,46.50
2022-10-30T01:17:10.559Z,46.30
2022-10-30T01:19:42.614Z,46.00
2022-10-30T01:22:23.485Z,45.90
2022-10-30T01:24:57.083Z,45.40
2022-10-30T01:27:33.942Z,45.60
2022-10-30T01:30:11.642Z,45.20
2022-10-30T01:32:43.409Z,45.30
2022-10-30T01:35:16.277Z,45.20
2022-10-30T01:37:47.920Z,44.90
2022-10-30T01:40:17.293Z,45.20
2022-10-30T01:42:47.287Z,45.20
2022-10-30T01:45:20.084Z,44.80
2022-10-30T01:47:55.774Z,44.80
2022-10-30T01:50:30.388Z,44.70
2022-10-30T01:52:59.464Z,44.70
2022-10-30T01:55:33.129Z,44.50
2022-10-30T01:58:05.557Z,44.40
2022-10-30T02:00:33.204Z,44.20
2022-10-30T02:03:01.343Z,44.20
2022-10-30T02:05:34.533Z,44.30
2022-10-30T02:08:02.600Z,44.10
2022-10-30T02:10:32.118Z,44.00
2022-10-30T02:13:00.115Z,44.00
2022-10-30T02:15:28.239Z,44.10
2022-10-30T02:17:56.493Z,43.80
2022-10-30T02:20:25.828Z,43.80
2022-10-30T02:22:57.979Z,43.70
2022-10-30T02:25:31.573Z,43.90
2022-10-30T02:27:59.770Z,43.90
2022-10-30T02:30:29.341Z,43.70
2022-10-30T02:32:57.432Z,43.50
2022-10-30T02:35:26.950Z,43.70
2022-10-30T02:37:54.865Z,43.50
2022-10-30T02:40:22.739Z,43.40
2022-10-30T02:42:53.171Z,43.50
2022-10-30T02:45:20.907Z,43.50
2022-10-30T02:47:49.107Z,43.70
2022-10-30T02:50:16.978Z,43.50
2022-10-30T02:52:46.243Z,44.20
2022-10-30T02:55:13.959Z,43.60
2022-10-30T02:57:42.489Z,43.60
2022-10-30T03:00:11.309Z,43.50
2022-10-30T03:02:39.146Z,43.40
2022-10-30T03:05:07.464Z,43.70
2022-10-30T03:07:35.172Z,43.60
2022-10-30T03:10:04.541Z,43.50
2022-10-30T03:12:33.363Z,43.60
2022-10-30T03:15:01.042Z,43.60
2022-10-30T03:17:28.878Z,43.60
2022-10-30T03:19:56.594Z,43.50
2022-10-30T03:22:24.250Z,43.70
2022-10-30T03:24:51.914Z,43.70
2022-10-30T03:27:21.291Z,43.50
2022-10-30T03:29:51.468Z,43.50
2022-10-30T03:32:19.233Z,43.50
2022-10-30T03:34:52.201Z,43.60
2022-10-30T03:37:20.095Z,44.30
2022-10-30T03:39:47.738Z,43.60
2022-10-30T03:42:15.429Z,43.60
2022-10-30T03:44:45.381Z,43.70
2022-10-30T03:47:13.327Z,43.80
2022-10-30T03:49:44.167Z,43.80
2022-10-30T03:52:15.127Z,43.90
2022-10-30T03:54:42.786Z,43.90
2022-10-30T03:57:13.183Z,43.90
2022-10-30T03:59:51.884Z,43.90
2022-10-30T04:02:38.045Z,44.10
2022-10-30T04:05:06.248Z,43.90
2022-10-30T04:07:33.969Z,43.90
2022-10-30T04:10:01.673Z,43.90
2022-10-30T04:12:30.721Z,43.90
2022-10-30T04:14:59.698Z,44.10
2022-10-30T04:17:27.359Z,44.00
2022-10-30T04:19:55.042Z,44.10
2022-10-30T04:22:22.712Z,44.10
2022-10-30T04:24:50.787Z,44.20
2022-10-30T04:27:19.866Z,44.20
2022-10-30T04:29:47.618Z,44.40
2022-10-30T04:32:16.678Z,44.30
2022-10-30T04:34:44.327Z,44.40
2022-10-30T04:37:12.071Z,44.50
2022-10-30T04:39:43.745Z,44.50
2022-10-30T04:42:18.672Z,45.20
2022-10-30T04:44:46.413Z,44.60
2022-10-30T04:47:15.802Z,44.60
2022-10-30T04:49:44.841Z,44.60
2022-10-30T04:52:12.895Z,44.70
2022-10-30T04:54:40.700Z,44.80
2022-10-30T04:57:09.049Z,44.80
2022-10-30T04:59:37.199Z,44.80
2022-10-30T05:02:05.091Z,44.80
2022-10-30T05:04:32.893Z,44.90
2022-10-30T05:07:02.104Z,44.90
2022-10-30T05:09:30.008Z,44.90
2022-10-30T05:11:59.096Z,45.00
2022-10-30T05:14:30.393Z,45.00
2022-10-30T05:16:58.175Z,45.00
2022-10-30T05:19:25.953Z,45.00
2022-10-30T05:21:56.516Z,45.00
2022-10-30T05:24:25.699Z,45.00
2022-10-30T05:26:53.414Z,45.00
2022-10-30T05:29:21.118Z,45.10
2022-10-30T05:31:48.810Z,45.20
2022-10-30T05:34:16.479Z,45.10
2022-10-30T05:36:46.210Z,45.10
2022-10-30T05:39:15.268Z,45.20
2022-10-30T05:41:47.918Z,45.10
2022-10-30T05:44:29.147Z,45.30
2022-10-30T05:47:02.492Z,45.30
2022-10-30T05:49:33.937Z,45.20
2022-10-30T05:52:04.467Z,45.20
2022-10-30T05:54:33.339Z,45.20
2022-10-30T05:57:09.652Z,45.90
2022-10-30T05:59:39.687Z,45.30
2022-10-30T06:02:07.573Z,45.30
2022-10-30T06:04:35.763Z,45.30
2022-10-30T06:07:08.173Z,45.30
2022-10-30T06:09:36.050Z,45.50
2022-10-30T06:12:23.959Z,45.50
2022-10-30T06:14:59.313Z,45.50
2022-10-30T06:17:26.981Z,45.60
2022-10-30T06:20:13.214Z,45.50
2022-10-30T06:23:04.989Z,45.60
2022-10-30T06:25:43.147Z,45.50
2022-10-30T06:28:16.495Z,45.50
2022-10-30T06:30:44.205Z,45.50
2022-10-30T06:33:12.240Z,45.50
2022-10-30T06:35:45.646Z,45.60
2022-10-30T06:38:13.321Z,45.60
2022-10-30T06:40:41.156Z,45.60
2022-10-30T06:43:32.385Z,45.60
2022-10-30T06:46:05.179Z,45.70
2022-10-30T06:48:34.757Z,45.70
2022-10-30T06:51:03.082Z,45.70
2022-10-30T06:53:33.739Z,45.80
2022-10-30T06:56:21.421Z,45.80
2022-10-30T06:59:06.887Z,45.80
2022-10-30T07:01:45.215Z,45.80
2022-10-30T07:04:16.104Z,45.90
2022-10-30T07:06:44.920Z,46.00
2022-10-30T07:09:12.892Z,45.90
2022-10-30T07:11:45.587Z,45.80
2022-10-30T07:14:20.320Z,45.90
2022-10-30T07:16:55.451Z,45.90
2022-10-30T07:19:23.400Z,46.00
2022-10-30T07:21:51.173Z,46.00
2022-10-30T07:24:18.933Z,46.00
2022-10-30T07:27:05.344Z,46.00
2022-10-30T07:29:38.941Z,46.00
2022-10-30T07:32:22.068Z,46.00
2022-10-30T07:35:13.029Z,46.10
2022-10-30T07:38:04.536Z,46.00
2022-10-30T07:40:42.505Z,46.10
2022-10-30T07:43:33.879Z,46.10
2022-10-30T07:46:23.234Z,46.30
2022-10-30T07:49:19.696Z,46.20
2022-10-30T07:51:53.754Z,46.20
2022-10-30T07:54:21.803Z,46.20
2022-10-30T07:56:49.583Z,46.20
2022-10-30T07:59:17.344Z,46.20
2022-10-30T08:02:21.636Z,46.20
2022-10-30T08:05:10.312Z,46.30
2022-10-30T08:08:04.529Z,46.30
2022-10-30T08:10:32.253Z,46.30
2022-10-30T08:12:59.954Z,46.30
2022-10-30T08:15:28.290Z,46.20
2022-10-30T08:17:57.522Z,46.30
2022-10-30T08:20:26.569Z,46.20
2022-10-30T08:22:54.882Z,46.30
2022-10-30T08:25:26.386Z,46.30
2022-10-30T08:27:55.833Z,46.40
2022-10-30T08:30:26.246Z,46.30
2022-10-30T08:33:00.034Z,46.40
2022-10-30T08:35:49.648Z,46.20
2022-10-30T08:38:17.392Z,46.40
2022-10-30T08:40:49.701Z,46.30
2022-10-30T08:43:18.382Z,46.30
2022-10-30T08:45:46.133Z,46.40
2022-10-30T08:48:17.497Z,46.30
2022-10-30T08:50:45.560Z,46.40
2022-10-30T08:53:20.335Z,46.30
2022-10-30T08:55:49.460Z,46.40
2022-10-30T08:58:24.802Z,46.40
2022-10-30T09:00:57.194Z,46.40
2022-10-30T09:03:47.863Z,46.40
2022-10-30T09:06:44.416Z,46.40
2022-10-30T09:09:35.670Z,46.30
2022-10-30T09:12:04.622Z,46.40
2022-10-30T09:14:39.345Z,46.40
2022-10-30T09:17:09.462Z,46.50
2022-10-30T09:19:39.853Z,45.60
2022-10-30T09:22:07.981Z,45.40
2022-10-30T09:24:40.587Z,45.00
2022-10-30T09:27:28.479Z,45.70
2022-10-30T09:29:58.423Z,46.00
2022-10-30T09:32:31.242Z,45.80
2022-10-30T09:35:13.039Z,46.30
2022-10-30T09:37:42.485Z,46.00
2022-10-30T09:40:23.042Z,46.30
2022-10-30T09:42:51.440Z,46.30
2022-10-30T09:45:59.003Z,47.10
2022-10-30T09:48:40.342Z,47.00
2022-10-30T09:51:30.113Z,46.30
2022-10-30T09:54:02.526Z,46.30
2022-10-30T09:56:40.520Z,46.00
2022-10-30T09:59:12.099Z,45.00
2022-10-30T10:01:42.504Z,44.00
2022-10-30T10:04:23.826Z,44.20
2022-10-30T10:07:17.433Z,44.20
2022-10-30T10:09:53.829Z,44.60
2022-10-30T10:13:01.686Z,44.80
2022-10-30T10:15:34.675Z,43.80
2022-10-30T10:18:02.562Z,44.10
2022-10-30T10:20:33.227Z,43.60
2022-10-30T10:23:05.725Z,43.90
2022-10-30T10:25:33.503Z,43.80
2022-10-30T10:28:07.986Z,44.20
2022-10-30T10:30:40.403Z,44.00
2022-10-30T10:33:44.733Z,44.20
2022-10-30T10:36:21.279Z,43.10
2022-10-30T10:38:57.605Z,43.60
2022-10-30T10:41:30.982Z,43.80
2022-10-30T10:44:07.605Z,43.90
2022-10-30T10:46:42.956Z,43.90
2022-10-30T10:49:18.436Z,44.10
2022-10-30T10:51:48.435Z,44.10
2022-10-30T10:54:18.843Z,44.30
2022-10-30T10:56:48.274Z,44.40
2022-10-30T10:59:17.581Z,44.10
2022-10-30T11:01:47.049Z,43.60
2022-10-30T11:04:17.194Z,43.10
2022-10-30T11:06:47.494Z,43.30
2022-10-30T11:09:19.425Z,43.50
2022-10-30T11:11:47.138Z,44.00
2022-10-30T11:14:15.957Z,43.90
2022-10-30T11:16:54.171Z,43.20
2022-10-30T11:19:21.886Z,43.10
2022-10-30T11:21:51.176Z,43.20
2022-10-30T11:24:29.546Z,43.20
2022-10-30T11:26:57.852Z,43.60
2022-10-30T11:29:26.099Z,44.10
2022-10-30T11:32:02.592Z,43.50
2022-10-30T11:34:33.468Z,43.90
2022-10-30T11:37:01.327Z,44.00
2022-10-30T11:39:31.418Z,43.70
2022-10-30T11:42:04.664Z,43.50
2022-10-30T11:44:34.978Z,43.20
2022-10-30T11:47:02.775Z,43.40
2022-10-30T11:49:41.015Z,43.60
2022-10-30T11:52:08.831Z,42.70
2022-10-30T11:54:40.414Z,43.00
2022-10-30T11:57:18.285Z,43.40
2022-10-30T11:59:46.448Z,42.70
2022-10-30T12:02:21.662Z,42.80
2022-10-30T12:04:49.839Z,42.50
2022-10-30T12:07:25.509Z,42.40
2022-10-30T12:09:54.595Z,41.90
2022-10-30T12:12:24.249Z,42.40
2022-10-30T12:14:52.211Z,41.90
2022-10-30T12:17:20.012Z,41.70
2022-10-30T12:19:49.241Z,41.90
2022-10-30T12:22:28.272Z,41.40
2022-10-30T12:24:57.580Z,40.50
2022-10-30T12:27:25.293Z,40.90
2022-10-30T12:30:08.462Z,40.40
2022-10-30T12:32:44.696Z,39.70
2022-10-30T12:35:25.586Z,39.30
2022-10-30T12:37:54.172Z,39.20
2022-10-30T12:40:25.508Z,39.70
2022-10-30T12:42:56.210Z,39.10
2022-10-30T12:45:25.898Z,39.10
2022-10-30T12:47:55.210Z,39.00
2022-10-30T12:50:24.367Z,39.40
2022-10-30T12:52:55.655Z,39.40
2022-10-30T12:55:27.500Z,39.20
2022-10-30T12:57:57.940Z,39.70
2022-10-30T13:00:25.622Z,39.10
2022-10-30T13:02:57.205Z,39.20
2022-10-30T13:05:32.117Z,39.50
2022-10-30T13:08:05.433Z,39.70
2022-10-30T13:10:36.640Z,39.50
2022-10-30T13:13:06.239Z,39.80
2022-10-30T13:15:34.867Z,39.30
2022-10-30T13:18:12.203Z,39.70
2022-10-30T13:20:39.837Z,40.20
2022-10-30T13:23:10.267Z,40.50
2022-10-30T13:25:42.613Z,40.20
2022-10-30T13:28:14.016Z,40.00
2022-10-30T13:30:42.401Z,40.50
2022-10-30T13:33:12.919Z,40.90
2022-10-30T13:35:43.975Z,41.50
2022-10-30T13:38:26.139Z,42.20
2022-10-30T13:40:57.410Z,43.00
2022-10-30T13:43:26.507Z,43.20
2022-10-30T13:46:10.594Z,43.40
2022-10-30T13:48:47.191Z,43.20
2022-10-30T13:51:22.681Z,43.90
2022-10-30T13:53:53.793Z,44.30
2022-10-30T13:56:22.851Z,43.90
2022-10-30T13:58:53.053Z,44.30
2022-10-30T14:01:22.342Z,44.30
2022-10-30T14:03:52.484Z,44.50
2022-10-30T14:06:25.621Z,45.00
2022-10-30T14:08:55.777Z,44.90
2022-10-30T14:11:24.819Z,45.00
2022-10-30T14:13:55.096Z,44.90
2022-10-30T14:16:34.545Z,45.10
2022-10-30T14:19:02.694Z,44.50
2022-10-30T14:21:32.239Z,45.00
2022-10-30T14:24:03.720Z,44.90
2022-10-30T14:26:32.805Z,43.50
2022-10-30T14:29:00.526Z,43.40
2022-10-30T14:31:34.904Z,43.90
2022-10-30T14:34:02.787Z,43.20
2022-10-30T14:36:49.390Z,42.70
2022-10-30T14:39:28.048Z,44.30
2022-10-30T14:42:11.472Z,43.10
2022-10-30T14:44:53.357Z,44.00
2022-10-30T14:48:03.150Z,44.30
2022-10-30T14:50:53.970Z,43.80
2022-10-30T14:53:35.546Z,43.70
2022-10-30T14:56:06.845Z,43.60
2022-10-30T14:58:36.511Z,44.00
2022-10-30T15:01:21.580Z,44.70
2022-10-30T15:03:53.698Z,44.80
2022-10-30T15:06:24.758Z,44.60
2022-10-30T15:09:04.730Z,45.00
2022-10-30T15:11:38.411Z,45.20
2022-10-30T15:14:20.976Z,45.30
2022-10-30T15:16:54.482Z,45.70
2022-10-30T15:19:22.602Z,45.30
2022-10-30T15:21:52.360Z,45.50
2022-10-30T15:24:21.000Z,46.30
2022-10-30T15:26:49.505Z,46.00
2022-10-30T15:29:20.454Z,46.40
2022-10-30T15:31:58.655Z,46.40
2022-10-30T15:34:27.091Z,46.30
2022-10-30T15:36:54.768Z,46.30
2022-10-30T15:39:22.462Z,46.40
2022-10-30T15:41:51.190Z,46.50
2022-10-30T15:44:21.576Z,46.50
2022-10-30T15:46:49.980Z,47.10
2022-10-30T15:49:21.094Z,47.00
2022-10-30T15:51:48.754Z,47.00
2022-10-30T15:54:19.158Z,47.40
2022-10-30T15:57:17.877Z,47.80
2022-10-30T15:59:36.139Z,48.10
2022-10-30T16:02:03.897Z,48.70
2022-10-30T16:04:32.719Z,48.40
2022-10-30T16:07:01.122Z,48.60
2022-10-30T16:09:29.332Z,49.70
2022-10-30T16:11:59.590Z,48.80
2022-10-30T16:14:28.699Z,49.10
2022-10-30T16:16:59.966Z,49.00
2022-10-30T16:19:29.330Z,49.30
2022-10-30T16:21:57.584Z,49.60
2022-10-30T16:24:27.932Z,49.60
2022-10-30T16:27:05.603Z,50.60
2022-10-30T16:29:33.405Z,50.00
2022-10-30T16:32:02.467Z,49.70
2022-10-30T16:34:34.679Z,49.60
2022-10-30T16:37:02.688Z,49.50
2022-10-30T16:39:30.446Z,49.50
2022-10-30T16:41:58.772Z,49.90
2022-10-30T16:44:29.592Z,49.90
2022-10-30T16:46:58.095Z,50.30
2022-10-30T16:49:27.897Z,50.20
2022-10-30T16:51:59.602Z,50.30
2022-10-30T16:54:29.506Z,50.20
2022-10-30T16:56:57.848Z,50.30
2022-10-30T16:59:28.321Z,50.20
2022-10-30T17:01:57.333Z,50.10
2022-10-30T17:04:25.139Z,50.20
2022-10-30T17:07:02.718Z,50.20
2022-10-30T17:09:30.420Z,50.20
2022-10-30T17:12:05.171Z,50.20
2022-10-30T17:14:33.258Z,50.40
2022-10-30T17:17:00.918Z,50.40
2022-10-30T17:19:39.414Z,50.30
2022-10-30T17:22:11.333Z,50.30
2022-10-30T17:24:39.126Z,50.10
2022-10-30T17:27:08.507Z,50.10
2022-10-30T17:29:45.489Z,50.30
2022-10-30T17:32:18.592Z,50.50
2022-10-30T17:34:46.275Z,50.40
2022-10-30T17:37:15.282Z,50.30
2022-10-30T17:39:42.921Z,50.30
2022-10-30T17:42:10.652Z,50.40
2022-10-30T17:44:38.350Z,50.40
2022-10-30T17:47:13.379Z,50.30
2022-10-30T17:49:41.096Z,50.40
2022-10-30T17:52:12.176Z,50.40
2022-10-30T17:54:41.651Z,50.50
2022-10-30T17:57:10.876Z,50.50
2022-10-30T17:59:38.574Z,50.50
2022-10-30T18:02:12.168Z,50.50
2022-10-30T18:04:42.101Z,50.60
2022-10-30T18:07:09.895Z,50.60
2022-10-30T18:09:37.566Z,50.50
2022-10-30T18:12:07.151Z,50.50
2022-10-30T18:14:34.866Z,50.50
2022-10-30T18:17:02.559Z,50.60
2022-10-30T18:19:30.259Z,50.70
2022-10-30T18:21:57.927Z,50.70
2022-10-30T18:24:25.693Z,50.70
2022-10-30T18:26:53.771Z,50.60
2022-10-30T18:29:22.820Z,50.70
2022-10-30T18:31:50.484Z,50.70
2022-10-30T18:34:20.949Z,50.80
2022-10-30T18:36:48.803Z,50.80
2022-10-30T18:39:16.477Z,50.80
2022-10-30T18:41:44.758Z,50.80
2022-10-30T18:44:16.115Z,50.80
2022-10-30T18:46:45.264Z,50.80
2022-10-30T18:49:13.053Z,50.80
2022-10-30T18:51:40.834Z,51.00
2022-10-30T18:54:12.794Z,50.90
2022-10-30T18:56:40.470Z,51.50
2022-10-30T18:59:08.216Z,51.00
2022-10-30T19:01:36.001Z,51.00
2022-10-30T19:04:07.023Z,50.90
2022-10-30T19:06:34.921Z,50.90
2022-10-30T19:09:02.736Z,50.90
2022-10-30T19:11:31.733Z,50.90
2022-10-30T19:13:59.853Z,50.90
2022-10-30T19:16:27.592Z,50.90
2022-10-30T19:18:55.351Z,51.00
2022-10-30T19:21:25.795Z,51.00
2022-10-30T19:23:53.699Z,51.00
2022-10-30T19:26:21.525Z,51.00
2022-10-30T19:28:49.214Z,51.00
2022-10-30T19:31:17.926Z,51.00
2022-10-30T19:33:45.727Z,51.00
2022-10-30T19:36:27.730Z,50.90
2022-10-30T19:38:55.865Z,50.80
2022-10-30T19:41:24.555Z,50.90
2022-10-30T19:43:52.560Z,51.00
2022-10-30T19:46:20.294Z,51.10
2022-10-30T19:48:57.264Z,51.00
2022-10-30T19:51:27.463Z,51.20
2022-10-30T19:53:55.183Z,51.10
2022-10-30T19:56:23.029Z,51.10
2022-10-30T19:58:50.875Z,51.10
2022-10-30T20:01:18.774Z,51.10
2022-10-30T20:03:46.580Z,51.00
2022-10-30T20:06:14.464Z,51.00
2022-10-30T20:08:43.535Z,51.00
2022-10-30T20:11:11.226Z,51.00
2022-10-30T20:13:38.891Z,51.00
2022-10-30T20:16:07.501Z,51.00
2022-10-30T20:18:36.010Z,51.00
2022-10-30T20:21:04.589Z,51.00
2022-10-30T20:23:32.267Z,51.10
2022-10-30T20:26:02.258Z,51.20
2022-10-30T20:28:31.075Z,51.20
2022-10-30T20:30:58.743Z,51.20
2022-10-30T20:33:26.642Z,51.20
2022-10-30T20:35:55.207Z,51.20
2022-10-30T20:38:23.825Z,51.90
2022-10-30T20:40:53.896Z,51.30
2022-10-30T20:43:25.294Z,51.30
2022-10-30T20:45:54.049Z,51.40
2022-10-30T20:48:21.702Z,51.40
2022-10-30T20:50:50.941Z,51.50
2022-10-30T20:53:18.723Z,51.60
2022-10-30T20:55:46.605Z,51.60
2022-10-30T20:58:14.268Z,51.60
2022-10-30T21:00:43.430Z,51.70
2022-10-30T21:03:14.190Z,51.80
2022-10-30T21:05:44.398Z,51.80
2022-10-30T21:08:13.024Z,51.90
2022-10-30T21:10:40.818Z,51.90
2022-10-30T21:13:09.457Z,52.00
2022-10-30T21:15:39.296Z,52.20
2022-10-30T21:18:08.357Z,52.30
2022-10-30T21:20:36.459Z,52.50
2022-10-30T21:23:04.141Z,52.60
2022-10-30T21:25:32.675Z,52.70
2022-10-30T21:28:00.900Z,52.80
2022-10-30T21:30:28.690Z,52.90
2022-10-30T21:32:56.359Z,52.90
2022-10-30T21:35:25.344Z,52.80
2022-10-30T21:37:52.994Z,52.90
2022-10-30T21:40:20.698Z,53.00
2022-10-30T21:42:48.745Z,53.10
2022-10-30T21:45:16.573Z,53.00
2022-10-30T21:47:44.209Z,53.10
2022-10-30T21:50:12.939Z,53.10
2022-10-30T21:52:42.267Z,53.10
2022-10-30T21:55:10.173Z,53.10
2022-10-30T21:57:38.120Z,53.00
2022-10-30T22:00:07.558Z,53.00
2022-10-30T22:02:35.930Z,53.00
2022-10-30T22:05:03.582Z,53.10
2022-10-30T22:07:31.260Z,53.00
2022-10-30T22:10:00.254Z,53.10
2022-10-30T22:12:27.921Z,52.90
2022-10-30T22:14:55.649Z,52.80
2022-10-30T22:17:23.338Z,52.80
2022-10-30T22:19:51.031Z,52.80
2022-10-30T22:22:18.970Z,52.70
2022-10-30T22:24:46.612Z,52.60
2022-10-30T22:27:15.702Z,52.60
2022-10-30T22:29:43.477Z,52.50
2022-10-30T22:32:11.183Z,52.50
2022-10-30T22:34:38.862Z,52.50
2022-10-30T22:37:06.531Z,52.40
2022-10-30T22:39:34.219Z,52.50
2022-10-30T22:42:01.909Z,52.40
2022-10-30T22:44:30.902Z,52.50
2022-10-30T22:46:58.573Z,52.20
2022-10-30T22:49:26.224Z,52.30
2022-10-30T22:51:53.886Z,52.20
2022-10-30T22:54:21.544Z,52.20
2022-10-30T22:56:49.221Z,52.10
2022-10-30T22:59:16.873Z,52.10
2022-10-30T23:01:45.951Z,52.00
2022-10-30T23:04:14.960Z,52.00
2022-10-30T23:06:43.009Z,52.00
2022-10-30T23:09:15.534Z,51.90
2022-10-30T23:11:43.297Z,51.80
2022-10-30T23:14:10.932Z,51.70
2022-10-30T23:16:38.588Z,51.70
2022-10-30T23:19:07.565Z,51.50
2022-10-30T23:21:35.247Z,51.50
2022-10-30T23:24:03.580Z,51.50
2022-10-30T23:26:32.030Z,51.40
2022-10-30T23:29:00.239Z,51.20
2022-10-30T23:31:28.598Z,51.10
2022-10-30T23:33:57.539Z,51.10
2022-10-30T23:36:26.752Z,51.70
2022-10-30T23:38:54.523Z,51.10
2022-10-30T23:41:22.321Z,51.20
2022-10-30T23:43:50.017Z,51.00
2022-10-30T23:46:17.724Z,51.10
2022-10-30T23:48:45.415Z,51.10
2022-10-30T23:51:13.130Z,50.90
2022-10-30T23:53:42.131Z,50.90
2022-10-30T23:56:09.842Z,50.70
2022-10-30T23:58:37.474Z,50.50
